首页
METAR-TAF:

METAR-TAF

机场 :

加鲁阿, 喀麦隆

纬度: 09-20N, 经度: 013-23E, 海拔: 242米

当前天气观测

该预报发布于1小时和52分钟前的20:00 UTC
风速12节,风向东南
温度 24°C
湿度 100%
气压 1012 hPa
能见度10公里或以上
散云层高于800英尺
少量云层高于1400英尺, 积雨云.
雷暴, 小雨,

METAR: FKKR 232000Z 14012KT 9999 -TSRA SCT008 FEW014CB 24/24 Q1012 NOSIG

时间: 22:52 (21:52 UTC)

预报

该预报发布于16小时和52分钟前的05:00 UTC
预报有效从23日的 06点(UTC)到 23日的 18点(UTC)
风速8节,风向西
能见度10公里或以上
少量云层高于2000英尺
短暂存在
从 23日的 14点(UTC)到 23日的 18点(UTC)
能見度: 3000
散云层高于2000英尺
少量云层高于2300英尺, 积雨云.
雷暴, 雨,

TAF: FKKR 230500Z 2306/2318 27008KT 9999 FEW020 TEMPO 2314/2318 3000 TSRA SCT020 FEW023CB

超过4000个机场的气象观测和天气预报(METAR&TAF报告)。

可查询的气象台以黄色和红色小点在地图上表示。

将鼠标移到小点上方,可查看气象台名称。

然后点击查看天气观测和预报。

如需切换地图:点击带黑十字的绿色按钮放大地图;点击带横线的绿色按钮缩小地图;或者点击绿色箭头查看邻近地区的地图。


METAR-TAF: